This is the latest recevied weather packets stored in our database for station/object GUNLAK-WX. If no packets are shown the sender has not sent any weather packets the latest 10 day(s).
| Time | Temp. | Humidity | Pressure | Rain* | Wind** | Luminosity | Snow |
|---|---|---|---|---|---|---|---|
| 1777420908 | 11.67° C | 78% | 985.6 hPa | 0 mm | - | - | - |
| 1777419971 | 12.22° C | 65% | 985.9 hPa | 0 mm | - | - | - |
| 1777419087 | 12.22° C | 66% | 986.1 hPa | 0 mm | - | - | - |
| 1777418171 | 12.78° C | 66% | 986.1 hPa | 0 mm | - | - | - |
| 1777417295 | 12.78° C | 66% | 986.1 hPa | 0 mm | - | - | - |
| 1777416371 | 13.33° C | 65% | 986.2 hPa | 0 mm | - | - | - |
| 1777415485 | 13.33° C | 71% | 985.9 hPa | 0 mm | - | - | - |
| 1777414571 | 13.33° C | 71% | 985.9 hPa | 0 mm | - | - | - |
| 1777413701 | 13.33° C | 71% | 985.9 hPa | 0 mm | - | - | - |
| 1777412771 | 13.33° C | 72% | 985.6 hPa | 0 mm | - | - | - |
| 1777411885 | 12.78° C | 72% | 985.6 hPa | 0 mm | - | - | - |
| 1777410972 | 12.78° C | 72% | 985.6 hPa | 0 mm | - | - | - |
| 1777410100 | 12.78° C | 72% | 985.6 hPa | 0 mm | - | - | - |
| 1777409171 | 12.78° C | 73% | 985.6 hPa | 0 mm | - | - | - |
| 1777408291 | 12.78° C | 79% | 985.3 hPa | 0 mm | - | - | - |
| 1777407371 | 12.22° C | 79% | 985.3 hPa | 0 mm | - | - | - |
| 1777406499 | 12.78° C | 78% | 985.3 hPa | 0 mm | - | - | - |
| 1777405571 | 12.78° C | 81% | 984.6 hPa | 0 mm | - | - | - |
| 1777404687 | 12.22° C | 81% | 984.6 hPa | 0 mm | - | - | - |
| 1777403772 | 11.67° C | 81% | 984.5 hPa | 0 mm | - | - | - |
| 1777402898 | 11.67° C | 81% | 984.5 hPa | 0 mm | - | - | - |
| 1777401972 | 11.67° C | 84% | 984.7 hPa | 0 mm | - | - | - |
| 1777401089 | 11.11° C | 84% | 984.7 hPa | 0 mm | - | - | - |
| 1777400174 | 10.56° C | 84% | 984.7 hPa | 0 mm | - | - | - |
| 1777399313 | 11.11° C | 84% | 984.7 hPa | 0 mm | - | - | - |
* Rain latest hour (hover to see other rain measurements)
** Current wind speed in m/s (hover to see current wind gust speed)